Time;durP1;ratioP1;P1;durP2;ratioP2;P2;SDS_P1;SDS_P2;PMS_P1;PMS_P2;Temp;Humidity;BMP_temperature;BMP_pressure;BME280_temperature;BME280_humidity;BME280_pressure;Samples;Min_cycle;Max_cycle;Signal;HPM_P1;HPM_P2
2022/06/17 00:02:02;;;;;;;;;;;15.60;98.90;;;;;;5069174;28;20236;-44
2022/06/17 00:04:28;;;;;;;;;;;15.50;99.30;;;;;;5067584;28;19920;-44
2022/06/17 00:06:55;;;;;;;;;;;15.40;99.50;;;;;;5070487;28;20377;-44
2022/06/17 00:09:22;;;;;;;;;;;15.30;99.70;;;;;;5070580;28;19965;-44
2022/06/17 00:11:47;;;;;;;;;;;15.30;99.90;;;;;;5069125;28;19916;-44
2022/06/17 00:14:14;;;;;;;;;;;15.20;99.90;;;;;;5069581;28;19962;-44
2022/06/17 00:16:39;;;;;;;;;;;15.20;99.90;;;;;;5066508;28;19923;-45
2022/06/17 00:19:05;;;;;;;;;;;15.10;99.90;;;;;;5058334;28;20357;-44
2022/06/17 00:21:32;;;;;;;;;;;15.00;99.90;;;;;;5069869;28;20364;-45
2022/06/17 00:24:05;;;;;;;;;;;15.00;99.90;;;;;;5067237;28;19924;-43
2022/06/17 00:26:30;;;;;;;;;;;14.90;99.90;;;;;;5050800;28;19924;-44
2022/06/17 00:28:56;;;;;;;;;;;14.90;99.90;;;;;;5050057;28;19916;-44
2022/06/17 00:31:21;;;;;;;;;;;14.80;99.90;;;;;;5049299;28;20356;-44
2022/06/17 00:33:47;;;;;;;;;;;14.80;99.90;;;;;;5049697;28;20025;-44
2022/06/17 00:36:14;;;;;;;;;;;14.80;99.90;;;;;;5052811;28;20011;-45
2022/06/17 00:38:39;;;;;;;;;;;14.80;99.90;;;;;;5068780;28;19924;-44
2022/06/17 00:41:23;;;;;;;;;;;14.80;99.90;;;;;;5058006;28;19970;-44
2022/06/17 00:43:49;;;;;;;;;;;14.80;99.90;;;;;;5049227;28;20435;-44
2022/06/17 00:46:38;;;;;;;;;;;14.70;99.90;;;;;;5051114;28;19924;-44
2022/06/17 00:49:19;;;;;;;;;;;14.70;99.90;;;;;;5069972;28;19949;-44
2022/06/17 00:51:46;;;;;;;;;;;14.70;99.90;;;;;;5069095;28;19923;-44
2022/06/17 00:54:19;;;;;;;;;;;14.70;99.90;;;;;;5064420;28;20365;-44
2022/06/17 00:56:44;;;;;;;;;;;14.70;99.90;;;;;;5051127;28;20337;-44
2022/06/17 00:59:14;;;;;;;;;;;14.60;99.90;;;;;;5060855;28;19916;-44
2022/06/17 01:01:50;;;;;;;;;;;14.60;99.90;;;;;;5049437;28;19955;-44
2022/06/17 01:04:17;;;;;;;;;;;14.70;99.90;;;;;;5048696;28;20012;-45
2022/06/17 01:06:46;;;;;;;;;;;14.70;99.90;;;;;;5069936;28;19920;-45
2022/06/17 01:12:01;;;;;;;;;;;14.60;99.90;;;;;;5053194;28;19916;-45
2022/06/17 01:14:27;;;;;;;;;;;14.60;99.90;;;;;;5052760;28;20502;-44
2022/06/17 01:16:53;;;;;;;;;;;14.50;99.90;;;;;;5052729;28;20298;-46
2022/06/17 01:19:32;;;;;;;;;;;14.40;99.90;;;;;;5069892;28;19916;-47
2022/06/17 01:22:01;;;;;;;;;;;14.50;99.90;;;;;;5073217;28;20278;-44
2022/06/17 01:24:26;;;;;;;;;;;14.50;99.90;;;;;;5055255;28;19972;-45
2022/06/17 01:26:52;;;;;;;;;;;14.50;99.90;;;;;;5052892;28;19979;-45
2022/06/17 01:29:17;;;;;;;;;;;14.50;99.90;;;;;;5054265;28;19916;-45
2022/06/17 01:31:45;;;;;;;;;;;14.50;99.90;;;;;;5052881;28;20241;-44
2022/06/17 01:34:13;;;;;;;;;;;14.50;99.90;;;;;;5052507;28;19960;-44
2022/06/17 01:36:39;;;;;;;;;;;14.50;99.90;;;;;;5052652;28;19923;-44
2022/06/17 01:39:05;;;;;;;;;;;14.40;99.90;;;;;;5060392;28;20457;-44
2022/06/17 01:41:31;;;;;;;;;;;14.40;99.90;;;;;;5070344;28;20007;-44
2022/06/17 01:44:00;;;;;;;;;;;14.40;99.90;;;;;;5052755;28;19916;-45
2022/06/17 01:46:36;;;;;;;;;;;14.40;99.90;;;;;;5072766;28;19969;-44
2022/06/17 01:49:21;;;;;;;;;;;14.40;99.90;;;;;;5069119;28;20401;-44
2022/06/17 01:52:00;;;;;;;;;;;14.40;99.90;;;;;;5072414;28;19917;-44
2022/06/17 01:54:29;;;;;;;;;;;14.40;99.90;;;;;;5071584;28;19939;-44
2022/06/17 01:56:55;;;;;;;;;;;14.40;99.90;;;;;;5072202;28;20462;-44
2022/06/17 01:59:24;;;;;;;;;;;14.40;99.90;;;;;;5070879;28;19924;-44
2022/06/17 02:01:51;;;;;;;;;;;14.40;99.90;;;;;;5072109;28;19964;-44
2022/06/17 02:04:23;;;;;;;;;;;14.30;99.90;;;;;;5060313;28;19920;-43
2022/06/17 02:06:51;;;;;;;;;;;14.30;99.90;;;;;;5071831;28;20007;-44
2022/06/17 02:09:17;;;;;;;;;;;14.30;99.90;;;;;;5072332;28;19917;-44
2022/06/17 02:11:42;;;;;;;;;;;14.30;99.90;;;;;;5070055;28;19920;-44
2022/06/17 02:14:09;;;;;;;;;;;14.30;99.90;;;;;;5071723;28;19967;-44
2022/06/17 02:16:36;;;;;;;;;;;14.30;99.90;;;;;;5070385;28;20193;-45
2022/06/17 02:19:02;;;;;;;;;;;14.20;99.90;;;;;;5072303;28;19920;-43
2022/06/17 02:21:32;;;;;;;;;;;14.30;99.90;;;;;;5069348;28;19923;-44
2022/06/17 02:23:59;;;;;;;;;;;14.20;99.90;;;;;;5071707;28;19917;-44
2022/06/17 02:26:24;;;;;;;;;;;14.20;99.90;;;;;;5069288;28;19942;-46
2022/06/17 02:28:50;;;;;;;;;;;14.10;99.90;;;;;;5064070;28;19916;-44
2022/06/17 02:31:16;;;;;;;;;;;14.10;99.90;;;;;;5054709;28;19923;-44
2022/06/17 02:33:44;;;;;;;;;;;14.00;99.90;;;;;;5051165;28;19920;-43
2022/06/17 02:36:14;;;;;;;;;;;14.00;99.90;;;;;;5051679;28;19920;-44
2022/06/17 02:38:40;;;;;;;;;;;13.90;99.90;;;;;;5072061;28;19916;-44
2022/06/17 02:41:07;;;;;;;;;;;13.90;99.90;;;;;;5056529;28;20286;-43
2022/06/17 02:43:35;;;;;;;;;;;13.80;99.90;;;;;;5052563;28;19924;-44
2022/06/17 02:46:13;;;;;;;;;;;13.80;99.90;;;;;;5052843;28;20020;-44
2022/06/17 02:48:42;;;;;;;;;;;13.80;99.90;;;;;;5062972;28;19920;-43
2022/06/17 02:51:10;;;;;;;;;;;13.70;99.90;;;;;;5070145;28;19916;-44
2022/06/17 02:53:38;;;;;;;;;;;13.80;99.90;;;;;;5069866;28;19967;-44
2022/06/17 02:56:10;;;;;;;;;;;13.80;99.90;;;;;;5069067;28;19923;-44
2022/06/17 02:58:36;;;;;;;;;;;13.80;99.90;;;;;;5069911;28;20010;-43
2022/06/17 03:01:01;;;;;;;;;;;13.80;99.90;;;;;;5071147;28;20620;-43
2022/06/17 03:03:27;;;;;;;;;;;13.90;99.90;;;;;;5052805;28;19916;-44
2022/06/17 03:05:52;;;;;;;;;;;13.90;99.90;;;;;;5051792;28;20018;-44
2022/06/17 03:08:21;;;;;;;;;;;13.90;99.90;;;;;;5069484;28;20370;-45
2022/06/17 03:10:47;;;;;;;;;;;13.90;99.90;;;;;;5070585;28;20430;-44
2022/06/17 03:13:25;;;;;;;;;;;13.90;99.90;;;;;;5069881;28;19920;-44
2022/06/17 03:15:52;;;;;;;;;;;14.00;99.90;;;;;;5071075;28;19920;-44
2022/06/17 03:18:18;;;;;;;;;;;14.00;99.90;;;;;;5068999;28;20366;-44
2022/06/17 03:20:46;;;;;;;;;;;14.00;99.90;;;;;;5060970;28;20266;-44
2022/06/17 03:23:13;;;;;;;;;;;13.90;99.90;;;;;;5052682;28;19921;-43
2022/06/17 03:25:44;;;;;;;;;;;13.90;99.90;;;;;;5053379;28;19920;-45
2022/06/17 03:28:12;;;;;;;;;;;13.80;99.90;;;;;;5061503;28;19920;-45
2022/06/17 03:30:45;;;;;;;;;;;13.70;99.90;;;;;;5070915;28;19917;-44
2022/06/17 03:33:16;;;;;;;;;;;13.60;99.90;;;;;;5069855;28;20741;-44
2022/06/17 03:35:42;;;;;;;;;;;13.60;99.90;;;;;;5070744;28;19917;-44
2022/06/17 03:38:26;;;;;;;;;;;13.60;99.90;;;;;;5070301;28;20385;-44
2022/06/17 03:40:54;;;;;;;;;;;13.60;99.90;;;;;;5065025;28;19920;-45
2022/06/17 03:43:23;;;;;;;;;;;13.70;99.90;;;;;;5064913;28;19923;-43
2022/06/17 03:45:52;;;;;;;;;;;13.70;99.90;;;;;;5070410;28;20323;-43
2022/06/17 03:48:31;;;;;;;;;;;13.80;99.90;;;;;;5069286;28;19920;-43
2022/06/17 03:50:57;;;;;;;;;;;13.80;99.90;;;;;;5063340;28;20003;-44
2022/06/17 03:53:24;;;;;;;;;;;13.90;99.90;;;;;;5050914;28;20012;-43
2022/06/17 03:55:51;;;;;;;;;;;13.90;99.90;;;;;;5059294;28;19956;-44
2022/06/17 03:58:18;;;;;;;;;;;14.00;99.90;;;;;;5065353;28;19921;-44
2022/06/17 04:00:52;;;;;;;;;;;14.00;99.90;;;;;;5055554;28;19920;-45
2022/06/17 04:03:25;;;;;;;;;;;14.00;99.90;;;;;;5055138;28;19917;-44
2022/06/17 04:05:56;;;;;;;;;;;14.10;99.90;;;;;;5068862;28;19924;-44
2022/06/17 04:08:21;;;;;;;;;;;14.10;99.90;;;;;;5069540;28;20277;-43
2022/06/17 04:10:47;;;;;;;;;;;14.10;99.90;;;;;;5068528;28;19917;-44
2022/06/17 04:13:14;;;;;;;;;;;14.10;99.90;;;;;;5069015;28;19928;-44
2022/06/17 04:15:58;;;;;;;;;;;14.10;99.90;;;;;;5070442;28;20527;-44
2022/06/17 04:18:24;;;;;;;;;;;14.10;99.90;;;;;;5069917;28;20348;-44
2022/06/17 04:20:56;;;;;;;;;;;14.20;99.90;;;;;;5069614;28;19916;-44
2022/06/17 04:23:26;;;;;;;;;;;14.20;99.90;;;;;;5069111;28;20347;-45
2022/06/17 04:25:58;;;;;;;;;;;14.30;99.90;;;;;;5068295;28;19928;-44
2022/06/17 04:28:26;;;;;;;;;;;14.30;99.90;;;;;;5059065;28;20293;-44
2022/06/17 04:30:56;;;;;;;;;;;14.40;99.90;;;;;;5050375;28;19923;-44
2022/06/17 04:33:26;;;;;;;;;;;14.40;99.90;;;;;;5052117;28;19936;-43
2022/06/17 04:35:55;;;;;;;;;;;14.50;99.90;;;;;;5050124;28;20003;-44
2022/06/17 04:38:20;;;;;;;;;;;14.50;99.90;;;;;;5049699;28;20382;-43
2022/06/17 04:40:47;;;;;;;;;;;14.60;99.90;;;;;;5052072;28;19917;-44
2022/06/17 04:43:20;;;;;;;;;;;14.70;99.90;;;;;;5066020;28;19920;-44
2022/06/17 04:45:56;;;;;;;;;;;14.80;99.90;;;;;;5072133;28;20373;-45
2022/06/17 04:48:22;;;;;;;;;;;14.80;99.90;;;;;;5054014;28;19927;-45
2022/06/17 04:50:47;;;;;;;;;;;14.90;99.90;;;;;;5054087;28;19916;-44
2022/06/17 04:53:14;;;;;;;;;;;14.90;99.90;;;;;;5054237;28;19917;-44
2022/06/17 04:55:41;;;;;;;;;;;15.00;99.90;;;;;;5053820;28;19920;-45
2022/06/17 04:58:11;;;;;;;;;;;15.00;99.90;;;;;;5073897;28;20329;-44
2022/06/17 05:00:36;;;;;;;;;;;15.10;99.90;;;;;;5073887;28;19916;-44
2022/06/17 05:03:02;;;;;;;;;;;15.10;99.90;;;;;;5066776;28;19925;-44
2022/06/17 05:05:36;;;;;;;;;;;15.20;99.90;;;;;;5067033;28;19920;-44
2022/06/17 05:08:02;;;;;;;;;;;15.20;99.90;;;;;;5053332;28;20279;-44
2022/06/17 05:10:30;;;;;;;;;;;15.30;99.90;;;;;;5064529;28;19927;-46
2022/06/17 05:12:55;;;;;;;;;;;15.30;99.90;;;;;;5071773;28;19961;-44
2022/06/17 05:15:21;;;;;;;;;;;15.40;99.90;;;;;;5054375;28;19967;-44
2022/06/17 05:17:47;;;;;;;;;;;15.50;99.90;;;;;;5053273;28;19924;-44
2022/06/17 05:20:15;;;;;;;;;;;15.50;99.90;;;;;;5055572;28;19936;-44
2022/06/17 05:22:43;;;;;;;;;;;15.60;99.90;;;;;;5066678;28;19920;-44
2022/06/17 05:25:17;;;;;;;;;;;15.60;99.90;;;;;;5064816;28;20373;-44
2022/06/17 05:27:43;;;;;;;;;;;15.60;99.90;;;;;;5071693;28;19935;-45
2022/06/17 05:30:09;;;;;;;;;;;15.70;99.90;;;;;;5055302;28;19924;-45
2022/06/17 05:32:34;;;;;;;;;;;15.80;99.90;;;;;;5065900;28;19916;-44
2022/06/17 05:35:00;;;;;;;;;;;15.80;99.90;;;;;;5062408;28;19939;-44
2022/06/17 05:37:25;;;;;;;;;;;15.90;99.90;;;;;;5058215;28;19920;-44
2022/06/17 05:39:51;;;;;;;;;;;16.00;99.90;;;;;;5068515;28;20407;-44
2022/06/17 05:42:16;;;;;;;;;;;16.00;99.90;;;;;;5061803;28;19923;-45
2022/06/17 05:44:42;;;;;;;;;;;16.00;99.90;;;;;;5059552;28;20454;-44
2022/06/17 05:47:07;;;;;;;;;;;16.10;99.90;;;;;;5062776;28;19922;-44
2022/06/17 05:49:33;;;;;;;;;;;16.20;99.90;;;;;;5071731;28;19916;-44
2022/06/17 05:51:59;;;;;;;;;;;16.20;99.90;;;;;;5067016;28;20372;-43
2022/06/17 05:54:24;;;;;;;;;;;16.30;99.90;;;;;;5066529;28;19924;-43
2022/06/17 05:56:50;;;;;;;;;;;16.40;99.90;;;;;;5056475;28;19927;-44
2022/06/17 05:59:17;;;;;;;;;;;16.40;99.90;;;;;;5052504;28;20023;-44
2022/06/17 06:01:42;;;;;;;;;;;16.40;99.90;;;;;;5053279;28;19932;-44
2022/06/17 06:04:08;;;;;;;;;;;16.50;99.90;;;;;;5051935;28;19939;-45
2022/06/17 06:06:33;;;;;;;;;;;16.60;99.90;;;;;;5065740;28;19931;-44
2022/06/17 06:08:59;;;;;;;;;;;16.50;99.90;;;;;;5053180;28;20003;-44
2022/06/17 06:11:24;;;;;;;;;;;16.60;99.90;;;;;;5052072;28;19917;-44
2022/06/17 06:13:50;;;;;;;;;;;16.70;99.90;;;;;;5067694;28;20395;-44
2022/06/17 06:16:15;;;;;;;;;;;16.70;99.90;;;;;;5069390;28;19924;-45
2022/06/17 06:18:45;;;;;;;;;;;16.70;99.90;;;;;;5064356;28;20393;-44
2022/06/17 06:21:11;;;;;;;;;;;16.80;99.90;;;;;;5065157;28;19920;-45
2022/06/17 06:23:38;;;;;;;;;;;16.80;99.90;;;;;;5071855;28;19917;-45
2022/06/17 06:26:05;;;;;;;;;;;16.80;99.90;;;;;;5058097;28;19943;-44
2022/06/17 06:28:30;;;;;;;;;;;16.90;99.90;;;;;;5072202;28;19971;-45
2022/06/17 06:31:04;;;;;;;;;;;16.90;99.90;;;;;;5071860;28;19951;-44
2022/06/17 06:33:30;;;;;;;;;;;16.90;99.90;;;;;;5070601;28;19917;-45
2022/06/17 06:35:55;;;;;;;;;;;17.00;99.90;;;;;;5068641;28;19927;-44
2022/06/17 06:38:21;;;;;;;;;;;17.00;99.90;;;;;;5071710;28;20308;-44
2022/06/17 06:40:47;;;;;;;;;;;17.00;99.90;;;;;;5054051;28;19966;-45
2022/06/17 06:43:17;;;;;;;;;;;17.10;99.90;;;;;;5064732;28;19928;-44
2022/06/17 06:45:44;;;;;;;;;;;17.10;99.90;;;;;;5069862;28;19925;-45
2022/06/17 06:48:10;;;;;;;;;;;17.10;99.90;;;;;;5068750;28;20016;-44
2022/06/17 06:50:36;;;;;;;;;;;17.20;99.90;;;;;;5071609;28;19927;-47
2022/06/17 06:53:02;;;;;;;;;;;17.30;99.90;;;;;;5070340;28;20002;-44
2022/06/17 06:55:28;;;;;;;;;;;17.30;99.90;;;;;;5071817;28;19928;-44
2022/06/17 06:57:54;;;;;;;;;;;17.40;99.90;;;;;;5070090;28;19920;-44
2022/06/17 07:00:41;;;;;;;;;;;17.40;99.90;;;;;;5067668;28;19939;-44
2022/06/17 07:03:06;;;;;;;;;;;17.50;99.90;;;;;;5063637;28;19916;-44
2022/06/17 07:05:34;;;;;;;;;;;17.50;99.90;;;;;;5071311;28;19970;-44
2022/06/17 07:07:59;;;;;;;;;;;17.60;99.90;;;;;;5070343;28;19924;-45
2022/06/17 07:10:27;;;;;;;;;;;17.60;99.90;;;;;;5071050;28;19920;-46
2022/06/17 07:12:53;;;;;;;;;;;17.70;99.90;;;;;;5070152;28;20354;-45
2022/06/17 07:15:19;;;;;;;;;;;17.80;99.90;;;;;;5070124;28;19920;-44
2022/06/17 07:17:56;;;;;;;;;;;18.00;99.90;;;;;;5067300;28;19965;-44
2022/06/17 07:20:23;;;;;;;;;;;18.20;99.90;;;;;;5056649;28;20460;-45
2022/06/17 07:22:49;;;;;;;;;;;18.30;99.90;;;;;;5050904;28;19916;-45
2022/06/17 07:25:14;;;;;;;;;;;18.40;99.90;;;;;;5059908;28;20264;-45
2022/06/17 07:27:40;;;;;;;;;;;18.60;99.70;;;;;;5059247;28;19924;-44
2022/06/17 07:30:06;;;;;;;;;;;18.60;99.90;;;;;;5059780;28;20475;-45
2022/06/17 07:32:31;;;;;;;;;;;18.70;99.40;;;;;;5061247;28;20373;-45
2022/06/17 07:34:57;;;;;;;;;;;18.80;98.90;;;;;;5059310;28;20427;-44
2022/06/17 07:40:06;;;;;;;;;;;19.10;99.30;;;;;;5059396;28;19921;-45
2022/06/17 07:42:38;;;;;;;;;;;19.20;97.90;;;;;;5056425;28;19921;-44
2022/06/17 07:45:14;;;;;;;;;;;19.30;97.50;;;;;;5057324;28;19920;-46
2022/06/17 07:47:42;;;;;;;;;;;19.40;96.60;;;;;;5055747;28;19917;-45
2022/06/17 07:50:11;;;;;;;;;;;19.50;97.70;;;;;;5055944;28;19916;-45
2022/06/17 07:52:36;;;;;;;;;;;19.60;97.60;;;;;;5058608;28;19917;-45
2022/06/17 07:55:02;;;;;;;;;;;19.70;97.10;;;;;;5047160;28;19931;-45
2022/06/17 07:57:28;;;;;;;;;;;19.90;97.20;;;;;;5061215;28;19955;-45
2022/06/17 07:59:53;;;;;;;;;;;20.10;97.00;;;;;;5057136;28;19967;-45
2022/06/17 08:02:19;;;;;;;;;;;20.20;96.10;;;;;;5059672;28;19920;-46
2022/06/17 08:04:44;;;;;;;;;;;20.10;94.50;;;;;;5047928;28;20373;-46
2022/06/17 08:07:10;;;;;;;;;;;20.20;95.80;;;;;;5064273;28;19919;-45
2022/06/17 08:09:35;;;;;;;;;;;20.20;96.10;;;;;;5055457;28;19917;-45
2022/06/17 08:12:01;;;;;;;;;;;20.30;95.30;;;;;;5065526;28;20336;-45
2022/06/17 08:14:26;;;;;;;;;;;20.40;95.60;;;;;;5049559;28;19920;-44
2022/06/17 08:16:52;;;;;;;;;;;20.50;96.30;;;;;;5049619;28;19921;-44
2022/06/17 08:19:18;;;;;;;;;;;20.60;96.50;;;;;;5051970;28;19923;-44
2022/06/17 08:21:44;;;;;;;;;;;20.70;94.90;;;;;;5056135;28;19940;-44
2022/06/17 08:24:09;;;;;;;;;;;20.70;93.80;;;;;;5056113;28;19991;-44
2022/06/17 08:26:35;;;;;;;;;;;20.80;95.30;;;;;;5053022;28;19921;-44
2022/06/17 08:29:00;;;;;;;;;;;20.90;94.00;;;;;;5060700;28;19928;-44
2022/06/17 08:31:26;;;;;;;;;;;20.90;94.80;;;;;;5055911;28;20483;-45
2022/06/17 08:33:51;;;;;;;;;;;21.00;94.70;;;;;;5055089;28;19925;-45
2022/06/17 08:36:19;;;;;;;;;;;21.00;94.90;;;;;;5059594;28;20228;-45
2022/06/17 08:38:47;;;;;;;;;;;21.10;93.70;;;;;;5055386;28;20496;-46
2022/06/17 08:41:23;;;;;;;;;;;21.20;93.00;;;;;;5056403;28;20219;-45
2022/06/17 08:44:07;;;;;;;;;;;21.20;94.10;;;;;;5052204;28;19916;-47
2022/06/17 08:46:52;;;;;;;;;;;21.30;94.40;;;;;;5049338;28;19982;-45
2022/06/17 08:49:33;;;;;;;;;;;21.40;93.80;;;;;;5055386;28;20266;-45
2022/06/17 08:52:09;;;;;;;;;;;21.40;93.50;;;;;;5063783;28;19974;-45
2022/06/17 08:54:34;;;;;;;;;;;21.40;92.90;;;;;;5048546;28;20004;-47
2022/06/17 08:57:00;;;;;;;;;;;21.40;93.40;;;;;;5062515;28;19999;-45
2022/06/17 08:59:44;;;;;;;;;;;21.40;92.50;;;;;;5059672;28;19924;-44
2022/06/17 09:02:28;;;;;;;;;;;21.40;93.40;;;;;;5059191;28;19966;-45
2022/06/17 09:04:57;;;;;;;;;;;21.50;93.90;;;;;;5058957;28;19931;-44
2022/06/17 09:07:42;;;;;;;;;;;21.60;93.20;;;;;;5064079;28;19981;-45
2022/06/17 09:10:18;;;;;;;;;;;21.60;92.20;;;;;;5049233;28;19923;-45
2022/06/17 09:13:04;;;;;;;;;;;21.60;92.60;;;;;;5054657;28;20404;-45
2022/06/17 09:15:36;;;;;;;;;;;21.60;93.10;;;;;;5056634;28;20420;-45
2022/06/17 09:18:07;;;;;;;;;;;21.60;92.60;;;;;;5060843;28;19916;-44
2022/06/17 09:20:38;;;;;;;;;;;21.50;93.30;;;;;;5063985;28;20341;-44
2022/06/17 09:23:05;;;;;;;;;;;21.50;92.50;;;;;;5054732;28;20270;-46
2022/06/17 09:25:41;;;;;;;;;;;21.50;92.20;;;;;;5050669;28;19921;-44
2022/06/17 09:28:09;;;;;;;;;;;21.50;92.40;;;;;;5057047;28;19918;-44
2022/06/17 09:30:38;;;;;;;;;;;21.50;92.50;;;;;;5057489;28;20011;-44
2022/06/17 09:33:13;;;;;;;;;;;21.50;93.40;;;;;;5065004;28;19964;-46
2022/06/17 09:36:04;;;;;;;;;;;21.60;92.50;;;;;;5069263;28;20392;-45
2022/06/17 09:38:30;;;;;;;;;;;21.60;92.00;;;;;;5054532;28;19995;-44
2022/06/17 09:40:58;;;;;;;;;;;21.60;91.70;;;;;;5057291;28;20482;-45
2022/06/17 09:43:29;;;;;;;;;;;21.60;91.70;;;;;;5069953;28;19916;-45
2022/06/17 09:46:03;;;;;;;;;;;21.60;92.20;;;;;;5071494;28;20387;-46
2022/06/17 09:48:28;;;;;;;;;;;21.60;92.80;;;;;;5070784;28;19961;-44
2022/06/17 09:51:08;;;;;;;;;;;21.70;92.40;;;;;;5068723;28;20294;-44
2022/06/17 09:53:51;;;;;;;;;;;21.80;92.90;;;;;;5070199;28;19920;-44
2022/06/17 09:56:20;;;;;;;;;;;21.90;92.00;;;;;;5063192;28;19939;-45
2022/06/17 09:58:52;;;;;;;;;;;22.00;92.10;;;;;;5064952;28;19916;-44
2022/06/17 10:01:18;;;;;;;;;;;22.10;91.80;;;;;;5052896;28;19927;-44
2022/06/17 10:03:43;;;;;;;;;;;22.10;92.60;;;;;;5064718;28;19916;-44
2022/06/17 10:06:21;;;;;;;;;;;22.20;91.40;;;;;;5062704;28;20333;-44
2022/06/17 10:08:56;;;;;;;;;;;22.30;91.50;;;;;;5061955;28;19922;-45
2022/06/17 10:11:27;;;;;;;;;;;22.40;91.90;;;;;;5057421;28;20011;-45
2022/06/17 10:14:06;;;;;;;;;;;22.40;91.80;;;;;;5071277;28;19931;-45
2022/06/17 10:19:31;;;;;;;;;;;22.50;92.60;;;;;;5053518;28;20358;-45
2022/06/17 10:22:15;;;;;;;;;;;22.50;91.80;;;;;;5053665;28;20011;-44
2022/06/17 10:24:53;;;;;;;;;;;22.50;90.50;;;;;;5066676;28;19927;-45
2022/06/17 10:27:25;;;;;;;;;;;22.50;90.90;;;;;;5055554;28;20393;-45
2022/06/17 10:29:58;;;;;;;;;;;22.50;91.60;;;;;;5053050;28;19927;-45
2022/06/17 10:32:25;;;;;;;;;;;22.50;91.90;;;;;;5060034;28;20386;-45
2022/06/17 10:34:52;;;;;;;;;;;22.50;91.30;;;;;;5057882;28;19971;-44
2022/06/17 10:37:18;;;;;;;;;;;22.50;91.50;;;;;;5056634;28;20390;-45
2022/06/17 10:39:44;;;;;;;;;;;22.60;91.30;;;;;;5057643;28;19942;-44
2022/06/17 10:42:12;;;;;;;;;;;22.60;91.10;;;;;;5066049;28;20066;-45
2022/06/17 10:44:38;;;;;;;;;;;22.60;91.00;;;;;;5059179;28;19924;-45
2022/06/17 10:47:06;;;;;;;;;;;22.70;90.00;;;;;;5061911;28;19916;-45
2022/06/17 10:49:37;;;;;;;;;;;22.80;91.00;;;;;;5063344;28;20003;-45
2022/06/17 10:52:05;;;;;;;;;;;22.80;90.00;;;;;;5060492;28;19920;-44
2022/06/17 10:54:33;;;;;;;;;;;22.90;89.80;;;;;;5051074;28;19917;-44
2022/06/17 10:57:02;;;;;;;;;;;22.90;85.80;;;;;;5048363;28;19995;-44
2022/06/17 10:59:35;;;;;;;;;;;22.90;88.60;;;;;;5057254;28;20011;-47
2022/06/17 11:02:00;;;;;;;;;;;22.90;88.40;;;;;;5051735;28;19916;-46
2022/06/17 11:04:30;;;;;;;;;;;22.90;86.70;;;;;;5057978;28;20772;-45
2022/06/17 11:07:05;;;;;;;;;;;22.90;87.90;;;;;;5060973;28;19923;-48
2022/06/17 11:09:33;;;;;;;;;;;23.00;85.10;;;;;;5062999;28;19916;-45
2022/06/17 11:12:03;;;;;;;;;;;23.00;89.40;;;;;;5057822;28;19916;-45
2022/06/17 11:14:43;;;;;;;;;;;23.00;88.60;;;;;;5050655;28;19924;-46
2022/06/17 11:17:27;;;;;;;;;;;23.10;88.20;;;;;;5055709;28;19916;-47
2022/06/17 11:19:54;;;;;;;;;;;23.10;87.50;;;;;;5063416;28;19920;-45
2022/06/17 11:22:25;;;;;;;;;;;23.10;84.90;;;;;;5058223;28;19923;-47
2022/06/17 11:24:53;;;;;;;;;;;23.10;85.50;;;;;;5057412;28;20066;-44
2022/06/17 11:27:25;;;;;;;;;;;23.10;86.90;;;;;;5053627;28;19924;-44
2022/06/17 11:29:52;;;;;;;;;;;23.20;84.60;;;;;;5050877;28;20273;-45
2022/06/17 11:32:30;;;;;;;;;;;23.20;87.50;;;;;;5050682;28;19923;-44
2022/06/17 11:34:58;;;;;;;;;;;23.20;85.40;;;;;;5050515;28;19920;-44
2022/06/17 11:37:24;;;;;;;;;;;23.20;85.40;;;;;;5057434;28;19994;-44
2022/06/17 11:40:16;;;;;;;;;;;23.20;85.60;;;;;;5058083;28;20439;-44
2022/06/17 11:42:43;;;;;;;;;;;23.20;83.70;;;;;;5046569;28;19967;-44
2022/06/17 11:45:11;;;;;;;;;;;23.20;84.40;;;;;;5065698;28;20022;-45
2022/06/17 11:47:37;;;;;;;;;;;23.20;86.10;;;;;;5068201;28;19916;-45
2022/06/17 11:50:13;;;;;;;;;;;23.20;84.40;;;;;;5069877;28;20487;-44
2022/06/17 11:52:39;;;;;;;;;;;23.20;84.80;;;;;;5052658;28;19921;-45
2022/06/17 11:55:05;;;;;;;;;;;23.20;83.30;;;;;;5064247;28;20328;-45
2022/06/17 11:57:32;;;;;;;;;;;23.20;82.40;;;;;;5068551;28;19916;-45
2022/06/17 11:59:59;;;;;;;;;;;23.20;84.80;;;;;;5069752;28;19940;-45
2022/06/17 12:02:25;;;;;;;;;;;23.30;86.10;;;;;;5077795;28;19919;-44
2022/06/17 12:05:05;;;;;;;;;;;23.40;83.20;;;;;;5089420;28;19945;-45
2022/06/17 12:07:35;;;;;;;;;;;23.50;87.50;;;;;;5068754;28;20302;-45
2022/06/17 12:10:16;;;;;;;;;;;23.70;87.40;;;;;;5058896;28;19924;-45
2022/06/17 12:12:42;;;;;;;;;;;23.80;84.20;;;;;;5049149;28;20369;-45
2022/06/17 12:15:16;;;;;;;;;;;23.90;83.60;;;;;;5049058;28;19959;-44
2022/06/17 12:17:42;;;;;;;;;;;24.00;83.80;;;;;;5048280;28;19916;-45
2022/06/17 12:20:20;;;;;;;;;;;24.00;83.80;;;;;;5063602;28;20375;-45
2022/06/17 12:22:51;;;;;;;;;;;24.10;82.40;;;;;;5069151;28;19920;-45
2022/06/17 12:25:26;;;;;;;;;;;24.30;81.90;;;;;;5070576;28;19930;-45
2022/06/17 12:28:02;;;;;;;;;;;24.40;82.00;;;;;;5067934;28;19981;-45
2022/06/17 12:30:35;;;;;;;;;;;24.50;81.90;;;;;;5056903;28;19917;-45
2022/06/17 12:33:12;;;;;;;;;;;24.60;82.20;;;;;;5048990;28;19924;-44
2022/06/17 12:35:39;;;;;;;;;;;24.60;81.60;;;;;;5048822;28;19925;-45
2022/06/17 12:38:28;;;;;;;;;;;24.70;82.30;;;;;;5060034;28;19916;-46
2022/06/17 12:40:59;;;;;;;;;;;24.70;80.90;;;;;;5066621;28;19920;-45
2022/06/17 12:43:43;;;;;;;;;;;24.70;77.50;;;;;;5054349;28;20264;-44
2022/06/17 12:46:17;;;;;;;;;;;24.80;79.10;;;;;;5050295;28;20378;-45
2022/06/17 12:48:45;;;;;;;;;;;24.80;80.30;;;;;;5064909;28;19920;-45
2022/06/17 12:54:07;;;;;;;;;;;25.00;75.60;;;;;;5048937;28;19959;-45
2022/06/17 12:56:37;;;;;;;;;;;25.10;72.40;;;;;;5050531;28;20283;-48
2022/06/17 12:59:15;;;;;;;;;;;25.10;77.80;;;;;;5051426;28;20403;-45
2022/06/17 13:01:44;;;;;;;;;;;25.10;73.90;;;;;;5057442;28;20360;-45
2022/06/17 13:04:13;;;;;;;;;;;25.20;75.90;;;;;;5068578;28;19916;-45
2022/06/17 13:06:57;;;;;;;;;;;25.20;74.60;;;;;;5061726;28;19928;-47
2022/06/17 13:09:34;;;;;;;;;;;25.20;74.90;;;;;;5054170;28;19966;-46
2022/06/17 13:12:12;;;;;;;;;;;25.30;72.30;;;;;;5055265;28;19916;-46
2022/06/17 13:16:45;;;;;;;5.13;1.88;;;25.40;75.40;;;;;;5092541;27;20336;-46
2022/06/17 13:19:18;;;;;;;8.68;2.63;;;25.50;73.40;;;;;;5072327;28;20103;-46
2022/06/17 13:21:46;;;;;;;5.90;2.25;;;25.50;70.40;;;;;;5067750;28;20041;-46
2022/06/17 13:24:35;;;;;;;4.05;1.85;;;25.50;75.30;;;;;;5083370;28;20036;-46
2022/06/17 13:27:03;;;;;;;4.22;2.13;;;25.50;70.90;;;;;;5075136;28;20032;-44
2022/06/17 13:29:57;;;;;;;7.80;2.13;;;25.50;70.60;;;;;;5068939;28;20056;-44
2022/06/17 13:32:33;;;;;;;3.65;2.10;;;25.40;71.40;;;;;;5064810;28;20051;-46
2022/06/17 13:35:00;;;;;;;6.40;2.38;;;25.40;72.90;;;;;;5074489;28;20044;-48
2022/06/17 13:37:38;;;;;;;6.07;2.33;;;25.30;73.10;;;;;;5069132;28;20044;-45
2022/06/17 13:40:07;;;;;;;8.27;2.15;;;25.30;74.60;;;;;;5083462;28;20101;-45
2022/06/17 13:42:34;;;;;;;6.22;1.95;;;25.40;73.40;;;;;;5083082;28;20037;-46
2022/06/17 13:45:18;;;;;;;7.70;2.75;;;25.50;74.10;;;;;;5072029;28;20040;-46
2022/06/17 13:47:55;;;;;;;2.50;1.52;;;25.50;76.10;;;;;;5085412;28;20040;-45
2022/06/17 13:50:38;;;;;;;12.23;2.03;;;25.50;76.30;;;;;;5067204;28;20040;-45
2022/06/17 13:53:10;;;;;;;3.97;1.92;;;25.50;74.60;;;;;;5065793;28;20048;-47
2022/06/17 13:56:02;;;;;;;7.50;1.88;;;25.50;76.00;;;;;;5066853;28;20413;-45
2022/06/17 13:58:57;;;;;;;4.57;1.67;;;25.60;71.20;;;;;;5071238;28;20085;-45
2022/06/17 14:01:23;;;;;;;4.18;1.33;;;25.70;73.00;;;;;;5078999;28;20032;-46
2022/06/17 14:03:49;;;;;;;7.25;1.77;;;25.80;74.70;;;;;;5082209;28;20051;-45
2022/06/17 14:06:15;;;;;;;2.22;1.10;;;25.80;71.20;;;;;;5074492;28;20049;-45
2022/06/17 14:08:53;;;;;;;3.83;2.03;;;25.80;74.70;;;;;;5074403;28;20041;-45
2022/06/17 14:11:32;;;;;;;5.72;2.00;;;25.80;73.20;;;;;;5082740;28;20036;-45
2022/06/17 14:14:19;;;;;;;4.72;1.95;;;25.90;72.40;;;;;;5083210;28;20383;-46
2022/06/17 14:16:59;;;;;;;6.47;1.80;;;25.90;71.00;;;;;;5067334;28;20049;-46
2022/06/17 14:19:27;;;;;;;6.90;2.05;;;25.90;74.00;;;;;;5077252;28;20580;-45
2022/06/17 14:21:55;;;;;;;8.23;2.55;;;25.90;72.70;;;;;;5067244;28;20041;-45
2022/06/17 14:24:42;;;;;;;4.10;1.02;;;25.90;72.80;;;;;;5065944;28;20078;-45
2022/06/17 14:27:23;;;;;;;3.10;1.00;;;25.90;71.70;;;;;;5061410;28;20478;-46
2022/06/17 14:30:16;;;;;;;2.95;1.38;;;26.00;70.70;;;;;;5065395;28;20493;-45
2022/06/17 14:32:47;;;;;;;1.88;1.40;;;26.00;70.70;;;;;;5059416;28;20033;-46
2022/06/17 14:35:28;;;;;;;4.20;1.33;;;26.00;70.50;;;;;;5061015;28;20049;-45
2022/06/17 14:38:14;;;;;;;4.72;1.30;;;26.00;70.20;;;;;;5060951;28;20044;-46